Time;durP1;ratioP1;P1;durP2;ratioP2;P2;SDS_P1;SDS_P2;PMS_P1;PMS_P2;Temp;Humidity;BMP_temperature;BMP_pressure;BME280_temperature;BME280_humidity;BME280_pressure;Samples;Min_cycle;Max_cycle;Signal;HPM_P1;HPM_P2
2022/03/23 00:02:13;;;;;;;4.70;2.70;;;;;;;;;;774992;76;26219;-76
2022/03/23 00:03:18;;;;;;;3.95;2.90;;;;;;;;;;776768;76;26267;-75
2022/03/23 00:04:21;;;;;;;6.95;3.47;;;;;;;;;;776827;76;26260;-75
2022/03/23 00:05:25;;;;;;;3.25;3.05;;;;;;;;;;776721;76;26256;-75
2022/03/23 00:06:28;;;;;;;4.60;2.70;;;;;;;;;;776727;76;26248;-75
2022/03/23 00:11:04;;;;;;;3.65;2.80;;;;;;;;;;767307;76;26225;-77
2022/03/23 00:12:09;;;;;;;2.90;2.60;;;;;;;;;;763863;77;26248;-74
2022/03/23 00:13:13;;;;;;;4.17;3.20;;;;;;;;;;756258;78;26312;-75
2022/03/23 00:14:18;;;;;;;4.30;2.95;;;;;;;;;;756330;78;26714;-76
2022/03/23 00:15:21;;;;;;;2.92;2.72;;;;;;;;;;756347;78;26686;-75
2022/03/23 00:16:25;;;;;;;4.90;2.40;;;;;;;;;;756285;78;26709;-74
2022/03/23 00:21:13;;;;;;;4.87;3.10;;;;;;;;;;777670;75;26264;-76
2022/03/23 00:22:18;;;;;;;3.47;3.15;;;;;;;;;;767618;77;26244;-75
2022/03/23 00:23:22;;;;;;;3.70;3.35;;;;;;;;;;768156;77;26263;-75
2022/03/23 00:24:26;;;;;;;4.95;3.10;;;;;;;;;;767706;77;26260;-75
2022/03/23 00:25:32;;;;;;;4.60;3.25;;;;;;;;;;767415;77;26276;-75
2022/03/23 00:26:35;;;;;;;6.40;3.25;;;;;;;;;;767884;77;26321;-74
2022/03/23 00:31:09;;;;;;;3.35;2.98;;;;;;;;;;763709;76;26229;-77
2022/03/23 00:32:14;;;;;;;4.00;3.40;;;;;;;;;;796328;74;26206;-75
2022/03/23 00:33:21;;;;;;;5.37;3.25;;;;;;;;;;795177;74;26300;-75
2022/03/23 00:34:22;;;;;;;3.42;3.12;;;;;;;;;;795391;74;26307;-75
2022/03/23 00:45:19;;;;;;;3.92;3.62;;;;;;;;;;781602;75;26262;-75
2022/03/23 00:46:24;;;;;;;4.42;4.00;;;;;;;;;;810071;73;26214;-75
2022/03/23 00:47:27;;;;;;;4.47;3.92;;;;;;;;;;809968;73;26643;-75
2022/03/23 00:50:16;;;;;;;4.47;2.95;;;;;;;;;;770708;75;26305;-76
2022/03/23 00:51:20;;;;;;;3.50;2.98;;;;;;;;;;770635;77;26316;-76
2022/03/23 00:52:25;;;;;;;4.00;3.20;;;;;;;;;;771020;76;26385;-75
2022/03/23 00:53:30;;;;;;;5.00;3.87;;;;;;;;;;771406;76;26395;-74
2022/03/23 00:54:38;;;;;;;4.15;3.20;;;;;;;;;;770869;76;26702;-75
2022/03/23 00:55:43;;;;;;;5.72;3.95;;;;;;;;;;770752;77;26410;-75
2022/03/23 00:56:46;;;;;;;3.77;2.95;;;;;;;;;;771447;77;26246;-76
2022/03/23 01:01:34;;;;;;;5.05;3.12;;;;;;;;;;786663;73;26228;-75
2022/03/23 01:02:37;;;;;;;3.08;2.80;;;;;;;;;;786611;75;26282;-75
2022/03/23 01:03:41;;;;;;;4.15;3.45;;;;;;;;;;786590;75;26231;-75
2022/03/23 01:04:43;;;;;;;5.20;2.58;;;;;;;;;;786702;75;26681;-75
2022/03/23 01:05:46;;;;;;;4.90;3.22;;;;;;;;;;786682;75;26682;-76
2022/03/23 01:06:56;;;;;;;4.10;2.70;;;;;;;;;;786558;75;26285;-77
2022/03/23 01:10:11;;;;;;;4.20;2.60;;;;;;;;;;790798;74;26294;-75
2022/03/23 01:11:14;;;;;;;6.40;2.98;;;;;;;;;;791658;74;26230;-74
2022/03/23 01:12:18;;;;;;;5.17;3.80;;;;;;;;;;776305;76;26300;-76
2022/03/23 01:13:22;;;;;;;3.12;2.83;;;;;;;;;;773241;76;26327;-74
2022/03/23 01:14:26;;;;;;;2.77;2.52;;;;;;;;;;774146;76;26769;-77
2022/03/23 01:15:32;;;;;;;3.42;2.98;;;;;;;;;;792996;73;26696;-76
2022/03/23 01:16:35;;;;;;;4.05;2.80;;;;;;;;;;774261;76;26730;-75
2022/03/23 01:21:07;;;;;;;3.85;3.10;;;;;;;;;;775872;74;26248;-74
2022/03/23 01:22:10;;;;;;;4.97;3.08;;;;;;;;;;775531;76;26251;-74
2022/03/23 01:23:16;;;;;;;2.85;2.65;;;;;;;;;;775400;76;26264;-77
2022/03/23 01:24:22;;;;;;;2.95;2.72;;;;;;;;;;775448;76;26689;-75
2022/03/23 01:25:25;;;;;;;2.80;2.60;;;;;;;;;;775429;76;26248;-77
2022/03/23 01:26:28;;;;;;;5.90;3.08;;;;;;;;;;775431;76;26674;-75
2022/03/23 01:40:29;;;;;;;3.10;2.80;;;;;;;;;;749989;78;26205;-77
2022/03/23 01:41:36;;;;;;;3.52;2.77;;;;;;;;;;749818;79;26693;-76
2022/03/23 01:42:40;;;;;;;2.98;2.77;;;;;;;;;;749455;79;26796;-76
2022/03/23 01:43:43;;;;;;;3.60;2.70;;;;;;;;;;749454;79;26786;-77
2022/03/23 01:44:53;;;;;;;4.20;2.62;;;;;;;;;;749583;79;26294;-75
2022/03/23 01:45:58;;;;;;;2.80;2.60;;;;;;;;;;749566;78;24728;-74
2022/03/23 01:47:04;;;;;;;4.85;2.58;;;;;;;;;;749493;78;26332;-76
2022/03/23 01:48:07;;;;;;;3.08;2.52;;;;;;;;;;749509;79;26276;-75
2022/03/23 01:49:12;;;;;;;2.80;2.52;;;;;;;;;;748533;79;26700;-76
2022/03/23 01:50:17;;;;;;;3.20;2.90;;;;;;;;;;749487;79;26322;-75
2022/03/23 01:51:23;;;;;;;3.33;2.67;;;;;;;;;;749530;79;26282;-76
2022/03/23 01:52:30;;;;;;;5.72;2.47;;;;;;;;;;749523;79;26286;-74
2022/03/23 01:53:37;;;;;;;5.30;2.67;;;;;;;;;;749347;79;26677;-76
2022/03/23 01:54:44;;;;;;;5.30;2.65;;;;;;;;;;746914;79;26337;-75
2022/03/23 01:55:47;;;;;;;2.83;2.50;;;;;;;;;;749406;79;26321;-75
2022/03/23 02:00:21;;;;;;;5.65;2.77;;;;;;;;;;769310;76;26295;-76
2022/03/23 02:01:28;;;;;;;3.98;2.75;;;;;;;;;;776901;76;26233;-75
2022/03/23 02:02:31;;;;;;;5.37;2.55;;;;;;;;;;776643;76;26296;-76
2022/03/23 02:03:34;;;;;;;2.85;2.27;;;;;;;;;;775431;76;26768;-75
2022/03/23 02:04:41;;;;;;;5.72;2.80;;;;;;;;;;775428;76;26745;-76
2022/03/23 02:05:44;;;;;;;3.62;2.80;;;;;;;;;;775422;76;26262;-75
2022/03/23 02:10:28;;;;;;;4.22;2.70;;;;;;;;;;785802;74;26728;-77
2022/03/23 02:11:33;;;;;;;3.90;2.77;;;;;;;;;;794624;74;26234;-76
2022/03/23 02:12:38;;;;;;;5.62;3.12;;;;;;;;;;793612;74;26301;-77
2022/03/23 02:13:40;;;;;;;2.70;2.50;;;;;;;;;;794840;74;26699;-76
2022/03/23 02:14:46;;;;;;;6.55;2.85;;;;;;;;;;794809;74;26238;-75
2022/03/23 02:15:49;;;;;;;3.98;3.20;;;;;;;;;;794973;74;26715;-76
2022/03/23 02:30:53;;;;;;;3.40;3.00;;;;;;;;;;774777;75;26202;-76
2022/03/23 02:32:01;;;;;;;4.80;3.60;;;;;;;;;;772548;77;26238;-77
2022/03/23 02:33:06;;;;;;;3.33;3.10;;;;;;;;;;772654;77;26246;-77
2022/03/23 02:34:13;;;;;;;5.20;3.80;;;;;;;;;;772598;77;26225;-73
2022/03/23 02:40:41;;;;;;;3.62;2.70;;;;;;;;;;782033;75;26209;-76
2022/03/23 02:41:44;;;;;;;4.20;3.17;;;;;;;;;;778673;76;26276;-75
2022/03/23 02:42:48;;;;;;;5.55;2.90;;;;;;;;;;778670;76;26754;-76
2022/03/23 02:43:51;;;;;;;3.70;2.90;;;;;;;;;;778675;76;26295;-75
2022/03/23 02:44:55;;;;;;;4.45;3.00;;;;;;;;;;778980;76;26229;-76
2022/03/23 02:46:00;;;;;;;4.15;3.05;;;;;;;;;;778881;76;26405;-76
2022/03/23 02:47:05;;;;;;;3.55;2.87;;;;;;;;;;778771;76;26237;-75
2022/03/23 02:48:09;;;;;;;4.65;3.20;;;;;;;;;;778701;76;26241;-75
2022/03/23 02:49:16;;;;;;;3.60;3.30;;;;;;;;;;778687;76;24595;-76
2022/03/23 02:50:18;;;;;;;3.12;2.72;;;;;;;;;;778653;74;26250;-77
2022/03/23 02:51:22;;;;;;;6.00;3.37;;;;;;;;;;778780;76;26245;-74
2022/03/23 02:52:28;;;;;;;3.62;3.33;;;;;;;;;;779008;76;26713;-77
2022/03/23 03:02:22;;;;;;;7.37;3.37;;;;;;;;;;738122;80;24698;-76
2022/03/23 03:03:25;;;;;;;6.08;3.08;;;;;;;;;;737087;80;26845;-75
2022/03/23 03:04:30;;;;;;;8.18;3.22;;;;;;;;;;737018;80;26360;-75
2022/03/23 03:05:33;;;;;;;4.05;3.00;;;;;;;;;;746538;77;26271;-75
2022/03/23 03:10:22;;;;;;;4.85;3.50;;;;;;;;;;765642;77;26364;-75
2022/03/23 03:14:40;;;;;;;7.20;3.70;;;;;;;;;;771613;76;26254;-74
2022/03/23 03:15:45;;;;;;;6.12;3.12;;;;;;;;;;770976;77;26304;-76
2022/03/23 03:20:36;;;;;;;3.80;3.50;;;;;;;;;;741343;78;26237;-75
2022/03/23 03:21:39;;;;;;;3.95;3.37;;;;;;;;;;759098;78;26315;-73
2022/03/23 03:22:45;;;;;;;15.68;3.55;;;;;;;;;;758928;78;24701;-75
2022/03/23 03:23:48;;;;;;;6.10;3.90;;;;;;;;;;745959;79;26709;-75
2022/03/23 03:24:51;;;;;;;4.50;3.75;;;;;;;;;;758967;78;26323;-74
2022/03/23 03:25:55;;;;;;;8.20;3.70;;;;;;;;;;759051;78;24308;-76
2022/03/23 03:30:20;;;;;;;4.90;3.52;;;;;;;;;;795749;74;26198;-78
2022/03/23 03:31:26;;;;;;;4.83;2.95;;;;;;;;;;794976;74;26280;-75
2022/03/23 03:32:29;;;;;;;4.35;3.60;;;;;;;;;;794770;74;26703;-74
2022/03/23 03:33:32;;;;;;;8.48;3.95;;;;;;;;;;794758;74;26692;-76
2022/03/23 03:34:40;;;;;;;3.80;3.08;;;;;;;;;;794757;74;26312;-74
2022/03/23 03:36:02;;;;;;;4.45;3.85;;;;;;;;;;795066;74;26683;-75
2022/03/23 03:38:54;;;;;;;4.30;3.70;;;;;;;;;;742438;78;26264;-76
2022/03/23 03:39:57;;;;;;;5.83;3.83;;;;;;;;;;738536;80;24322;-77
2022/03/23 03:41:03;;;;;;;5.58;3.47;;;;;;;;;;738206;80;26342;-74
2022/03/23 03:42:10;;;;;;;5.58;3.50;;;;;;;;;;738521;80;26733;-75
2022/03/23 03:43:16;;;;;;;6.45;3.55;;;;;;;;;;738768;80;26333;-75
2022/03/23 03:44:19;;;;;;;6.28;3.87;;;;;;;;;;738866;80;26274;-77
2022/03/23 03:45:24;;;;;;;10.50;5.10;;;;;;;;;;739301;80;26276;-76
2022/03/23 03:50:11;;;;;;;8.60;5.50;;;;;;;;;;796300;73;26240;-76
2022/03/23 03:51:17;;;;;;;8.05;5.50;;;;;;;;;;789891;74;26237;-77
2022/03/23 03:52:29;;;;;;;6.70;4.47;;;;;;;;;;790051;75;26228;-73
2022/03/23 03:53:35;;;;;;;8.40;5.40;;;;;;;;;;789949;75;26737;-76
2022/03/23 03:54:40;;;;;;;6.60;4.95;;;;;;;;;;790034;74;26713;-75
2022/03/23 03:55:45;;;;;;;9.60;4.60;;;;;;;;;;789930;75;26287;-76
2022/03/23 03:58:46;;;;;;;6.35;4.42;;;;;;;;;;793286;74;26222;-77
2022/03/23 03:59:52;;;;;;;5.53;4.10;;;;;;;;;;793770;75;26238;-74
2022/03/23 04:04:42;;;;;;;6.20;3.90;;;;;;;;;;797171;74;26272;-75
2022/03/23 04:05:45;;;;;;;6.00;3.90;;;;;;;;;;752262;79;26267;-77
2022/03/23 04:09:04;;;;;;;11.53;4.10;;;;;;;;;;752420;79;26188;-75
2022/03/23 04:10:09;;;;;;;4.47;3.62;;;;;;;;;;776702;76;26298;-75
2022/03/23 04:11:12;;;;;;;7.70;4.10;;;;;;;;;;775566;76;24642;-75
2022/03/23 04:12:16;;;;;;;5.80;4.12;;;;;;;;;;775570;76;24647;-76
2022/03/23 04:13:20;;;;;;;4.30;3.72;;;;;;;;;;775494;76;26252;-76
2022/03/23 04:14:23;;;;;;;6.10;3.77;;;;;;;;;;775532;76;26263;-75
2022/03/23 04:15:29;;;;;;;4.62;3.65;;;;;;;;;;776430;76;26257;-77
2022/03/23 04:18:54;;;;;;;5.37;3.45;;;;;;;;;;775839;76;26180;-77
2022/03/23 04:19:57;;;;;;;7.00;3.77;;;;;;;;;;766969;77;26303;-75
2022/03/23 04:21:05;;;;;;;4.00;3.60;;;;;;;;;;766921;77;26257;-75
2022/03/23 04:22:09;;;;;;;3.72;3.42;;;;;;;;;;767132;77;24642;-75
2022/03/23 04:23:12;;;;;;;5.65;3.52;;;;;;;;;;766986;77;26344;-77
2022/03/23 04:24:19;;;;;;;4.62;3.65;;;;;;;;;;767045;77;26252;-76
2022/03/23 04:25:22;;;;;;;3.67;3.20;;;;;;;;;;767015;77;26256;-75
2022/03/23 04:29:58;;;;;;;7.40;3.55;;;;;;;;;;790600;73;26207;-76
2022/03/23 04:31:01;;;;;;;5.47;3.50;;;;;;;;;;777335;76;26265;-75
2022/03/23 04:32:05;;;;;;;5.28;3.77;;;;;;;;;;777576;76;26321;-76
2022/03/23 04:33:12;;;;;;;9.33;3.67;;;;;;;;;;777507;76;26323;-75
2022/03/23 04:34:15;;;;;;;8.45;3.33;;;;;;;;;;777561;76;26250;-75
2022/03/23 04:39:20;;;;;;;4.65;3.65;;;;;;;;;;789756;73;26173;-75
2022/03/23 04:40:23;;;;;;;4.65;3.87;;;;;;;;;;785971;75;26243;-75
2022/03/23 04:41:29;;;;;;;4.45;3.80;;;;;;;;;;793116;75;26217;-74
2022/03/23 04:42:34;;;;;;;4.45;3.50;;;;;;;;;;775514;76;26710;-76
2022/03/23 04:43:38;;;;;;;4.40;4.00;;;;;;;;;;793004;75;26212;-76
2022/03/23 04:44:42;;;;;;;6.55;4.05;;;;;;;;;;786108;75;26239;-75
2022/03/23 04:45:44;;;;;;;4.33;3.77;;;;;;;;;;792943;75;26679;-75
2022/03/23 04:48:48;;;;;;;5.65;3.70;;;;;;;;;;773878;74;26280;-74
2022/03/23 04:49:51;;;;;;;9.53;4.05;;;;;;;;;;772412;75;26312;-74
2022/03/23 04:50:54;;;;;;;5.97;3.42;;;;;;;;;;758313;78;26255;-76
2022/03/23 04:55:23;;;;;;;8.78;4.30;;;;;;;;;;766181;75;26243;-75
2022/03/23 04:59:59;;;;;;;6.10;3.87;;;;;;;;;;787470;74;24590;-75
2022/03/23 05:01:04;;;;;;;3.80;3.50;;;;;;;;;;787474;75;24277;-76
2022/03/23 05:02:07;;;;;;;4.70;4.30;;;;;;;;;;787442;75;26227;-75
2022/03/23 05:03:20;;;;;;;5.55;3.77;;;;;;;;;;787428;75;26300;-75
2022/03/23 05:04:20;;;;;;;4.80;3.92;;;;;;;;;;771063;76;26793;-75
2022/03/23 05:05:24;;;;;;;7.60;4.22;;;;;;;;;;770677;77;26347;-76
2022/03/23 05:09:55;;;;;;;5.97;3.70;;;;;;;;;;746653;78;26266;-75
2022/03/23 05:11:06;;;;;;;5.28;3.50;;;;;;;;;;743053;80;26277;-75
2022/03/23 05:12:10;;;;;;;4.17;3.77;;;;;;;;;;733335;81;26355;-75
2022/03/23 05:13:13;;;;;;;5.97;4.15;;;;;;;;;;733387;81;26264;-75
2022/03/23 05:14:17;;;;;;;6.05;3.75;;;;;;;;;;733326;81;26650;-75
2022/03/23 05:15:22;;;;;;;5.00;3.70;;;;;;;;;;733229;81;26261;-75
2022/03/23 05:20:10;;;;;;;8.63;4.05;;;;;;;;;;767674;76;26238;-76
2022/03/23 05:21:15;;;;;;;7.75;3.92;;;;;;;;;;767609;77;24622;-76
2022/03/23 05:22:19;;;;;;;8.13;4.05;;;;;;;;;;773207;77;26707;-76
2022/03/23 05:23:25;;;;;;;6.30;4.00;;;;;;;;;;773498;77;26333;-76
2022/03/23 05:24:33;;;;;;;5.47;3.80;;;;;;;;;;767885;77;26433;-75
2022/03/23 05:25:36;;;;;;;9.58;4.47;;;;;;;;;;767780;77;26254;-75
2022/03/23 05:28:33;;;;;;;14.00;4.40;;;;;;;;;;760803;77;26200;-76
2022/03/23 05:29:38;;;;;;;8.25;4.65;;;;;;;;;;774598;75;26303;-76
2022/03/23 05:30:51;;;;;;;4.80;3.67;;;;;;;;;;768198;76;26305;-77
2022/03/23 05:31:54;;;;;;;7.65;4.30;;;;;;;;;;761002;78;26310;-75
2022/03/23 05:32:58;;;;;;;7.45;4.37;;;;;;;;;;774301;77;26295;-77
2022/03/23 05:34:04;;;;;;;7.17;4.10;;;;;;;;;;777041;76;26249;-77
2022/03/23 05:35:09;;;;;;;10.20;4.90;;;;;;;;;;768203;77;26243;-75
2022/03/23 05:39:59;;;;;;;5.10;4.60;;;;;;;;;;784296;75;26276;-75
2022/03/23 05:45:14;;;;;;;12.85;4.00;;;;;;;;;;790148;75;26174;-75
2022/03/23 05:48:05;;;;;;;5.83;4.17;;;;;;;;;;793475;73;27287;-77
2022/03/23 05:49:09;;;;;;;7.50;4.55;;;;;;;;;;798427;73;26232;-75
2022/03/23 05:50:12;;;;;;;10.88;4.75;;;;;;;;;;797898;74;26223;-75
2022/03/23 05:51:16;;;;;;;11.35;4.70;;;;;;;;;;797264;74;26236;-76
2022/03/23 05:52:22;;;;;;;6.53;4.90;;;;;;;;;;797231;74;26219;-75
2022/03/23 05:53:27;;;;;;;7.20;5.08;;;;;;;;;;797174;74;26219;-75
2022/03/23 05:54:29;;;;;;;5.78;4.65;;;;;;;;;;797171;74;26228;-75
2022/03/23 05:55:32;;;;;;;5.97;4.40;;;;;;;;;;797088;74;26684;-75
2022/03/23 05:58:34;;;;;;;8.35;4.65;;;;;;;;;;784241;73;24678;-74
2022/03/23 05:59:39;;;;;;;6.70;4.50;;;;;;;;;;783830;75;26244;-76
2022/03/23 06:00:42;;;;;;;8.00;5.03;;;;;;;;;;784596;75;26235;-74
2022/03/23 06:01:50;;;;;;;5.33;4.42;;;;;;;;;;786795;75;26336;-75
2022/03/23 06:02:52;;;;;;;6.05;4.60;;;;;;;;;;789339;75;26235;-75
2022/03/23 06:03:57;;;;;;;6.62;4.80;;;;;;;;;;789195;75;26715;-76
2022/03/23 06:05:00;;;;;;;11.55;5.33;;;;;;;;;;788978;75;26308;-75
2022/03/23 06:08:10;;;;;;;8.15;4.15;;;;;;;;;;775110;73;26284;-75
2022/03/23 06:09:13;;;;;;;8.45;4.22;;;;;;;;;;759536;78;26253;-75
2022/03/23 06:10:18;;;;;;;8.65;4.80;;;;;;;;;;759226;78;26402;-74
2022/03/23 06:11:21;;;;;;;10.32;5.40;;;;;;;;;;759196;78;26268;-75
2022/03/23 06:12:27;;;;;;;4.70;4.30;;;;;;;;;;772866;77;26301;-74
2022/03/23 06:13:30;;;;;;;6.22;5.28;;;;;;;;;;759208;78;26339;-76
2022/03/23 06:14:34;;;;;;;4.67;4.17;;;;;;;;;;759195;78;26326;-75
2022/03/23 06:19:33;;;;;;;7.15;5.47;;;;;;;;;;783421;76;26238;-74
2022/03/23 06:20:35;;;;;;;7.50;5.20;;;;;;;;;;781711;76;26230;-74
2022/03/23 06:21:39;;;;;;;10.98;5.80;;;;;;;;;;781783;76;26292;-75
2022/03/23 06:22:45;;;;;;;8.15;5.00;;;;;;;;;;781655;76;26226;-74
2022/03/23 06:23:48;;;;;;;5.90;5.30;;;;;;;;;;781635;76;26249;-74
2022/03/23 06:24:53;;;;;;;7.30;5.35;;;;;;;;;;780274;76;26238;-75
2022/03/23 06:27:45;;;;;;;8.30;6.80;;;;;;;;;;790831;74;26273;-75
2022/03/23 06:28:53;;;;;;;11.70;6.67;;;;;;;;;;777634;76;26238;-75
2022/03/23 06:29:57;;;;;;;7.00;4.85;;;;;;;;;;777764;76;26234;-75
2022/03/23 06:31:02;;;;;;;8.00;5.95;;;;;;;;;;777736;76;26233;-75
2022/03/23 06:37:24;;;;;;;11.83;5.42;;;;;;;;;;785358;72;26618;-75
2022/03/23 06:38:27;;;;;;;6.92;5.20;;;;;;;;;;806184;72;26714;-75
2022/03/23 06:39:32;;;;;;;9.03;6.03;;;;;;;;;;805992;73;26224;-75
2022/03/23 06:40:36;;;;;;;6.25;5.08;;;;;;;;;;805950;73;26286;-74
2022/03/23 06:41:40;;;;;;;6.95;6.03;;;;;;;;;;805873;73;26234;-76
2022/03/23 06:44:50;;;;;;;8.70;6.12;;;;;;;;;;806444;73;24546;-74
2022/03/23 06:49:10;;;;;;;8.43;5.40;;;;;;;;;;793812;74;26183;-76
2022/03/23 06:50:15;;;;;;;5.72;5.12;;;;;;;;;;798112;74;26233;-75
2022/03/23 06:51:24;;;;;;;6.45;5.10;;;;;;;;;;798343;74;26233;-75
2022/03/23 06:52:28;;;;;;;8.43;5.08;;;;;;;;;;794960;74;26292;-74
2022/03/23 06:53:30;;;;;;;7.10;4.80;;;;;;;;;;794585;74;26214;-75
2022/03/23 06:54:37;;;;;;;6.35;4.65;;;;;;;;;;794690;74;26215;-74
2022/03/23 06:58:44;;;;;;;6.92;5.30;;;;;;;;;;774110;75;26253;-75
2022/03/23 06:59:48;;;;;;;8.30;5.37;;;;;;;;;;774136;76;26671;-75
2022/03/23 07:00:52;;;;;;;4.95;4.45;;;;;;;;;;802792;73;26220;-74
2022/03/23 07:01:55;;;;;;;7.12;5.58;;;;;;;;;;802550;74;26223;-75
2022/03/23 07:03:00;;;;;;;5.37;4.80;;;;;;;;;;804202;74;26208;-75
2022/03/23 07:04:05;;;;;;;6.00;4.72;;;;;;;;;;804118;74;26215;-75
2022/03/23 07:05:08;;;;;;;7.75;5.17;;;;;;;;;;804142;73;26371;-75
2022/03/23 07:09:54;;;;;;;7.90;5.30;;;;;;;;;;780691;76;26293;-75
2022/03/23 07:10:57;;;;;;;8.05;4.97;;;;;;;;;;765920;77;26403;-75
2022/03/23 07:12:06;;;;;;;5.35;4.08;;;;;;;;;;779966;76;26769;-75
2022/03/23 07:13:08;;;;;;;6.25;4.47;;;;;;;;;;779629;76;26300;-75
2022/03/23 07:14:13;;;;;;;6.25;4.72;;;;;;;;;;779673;76;26243;-75
2022/03/23 07:17:23;;;;;;;5.60;4.78;;;;;;;;;;779883;76;26680;-75
2022/03/23 07:18:29;;;;;;;6.60;4.85;;;;;;;;;;782535;76;26247;-75
2022/03/23 07:19:51;;;;;;;5.87;5.08;;;;;;;;;;767541;77;26280;-74
2022/03/23 07:20:57;;;;;;;6.05;5.00;;;;;;;;;;783672;74;26710;-75
2022/03/23 07:24:07;;;;;;;6.50;4.47;;;;;;;;;;794194;74;26254;-75
2022/03/23 07:25:14;;;;;;;6.40;4.75;;;;;;;;;;775492;76;26697;-74
2022/03/23 07:28:31;;;;;;;8.13;5.85;;;;;;;;;;748851;79;26742;-77
2022/03/23 07:29:38;;;;;;;11.20;6.72;;;;;;;;;;747139;79;26369;-74
2022/03/23 07:30:41;;;;;;;10.10;6.72;;;;;;;;;;746546;79;26321;-75
2022/03/23 07:31:45;;;;;;;8.83;5.70;;;;;;;;;;746457;79;26295;-75
2022/03/23 07:32:50;;;;;;;7.83;5.50;;;;;;;;;;746484;79;26281;-74
2022/03/23 07:33:53;;;;;;;11.43;5.17;;;;;;;;;;746510;79;26362;-75
2022/03/23 07:40:11;;;;;;;5.75;4.47;;;;;;;;;;777900;76;26335;-75
2022/03/23 07:41:15;;;;;;;7.85;4.65;;;;;;;;;;778555;76;26268;-75
2022/03/23 07:42:20;;;;;;;7.78;5.12;;;;;;;;;;775801;76;26315;-76
2022/03/23 07:43:25;;;;;;;7.17;4.97;;;;;;;;;;775777;76;26335;-75
2022/03/23 07:44:32;;;;;;;7.80;4.60;;;;;;;;;;775909;76;26722;-76
2022/03/23 07:48:52;;;;;;;6.30;4.92;;;;;;;;;;780545;75;26273;-75
2022/03/23 07:49:57;;;;;;;7.12;4.47;;;;;;;;;;764782;77;26806;-74
2022/03/23 07:51:00;;;;;;;9.85;5.10;;;;;;;;;;765226;77;26266;-74
2022/03/23 07:52:07;;;;;;;6.10;4.40;;;;;;;;;;766076;77;26823;-74
2022/03/23 07:53:11;;;;;;;6.35;4.55;;;;;;;;;;753484;79;26271;-75
2022/03/23 07:54:13;;;;;;;4.95;4.47;;;;;;;;;;754312;77;26276;-75
2022/03/23 07:59:01;;;;;;;5.25;4.35;;;;;;;;;;775026;76;26244;-75
2022/03/23 08:00:06;;;;;;;6.40;4.90;;;;;;;;;;777701;76;26254;-74
2022/03/23 08:01:09;;;;;;;5.25;4.65;;;;;;;;;;777564;76;26255;-74
2022/03/23 08:02:13;;;;;;;6.92;4.65;;;;;;;;;;777684;76;26252;-75
2022/03/23 08:03:16;;;;;;;5.78;4.42;;;;;;;;;;778078;76;26309;-74
2022/03/23 08:04:28;;;;;;;11.08;4.67;;;;;;;;;;779207;76;26310;-76
2022/03/23 08:09:03;;;;;;;5.65;4.20;;;;;;;;;;773736;75;26243;-75
2022/03/23 08:10:12;;;;;;;4.97;4.45;;;;;;;;;;771079;77;26251;-77
2022/03/23 08:19:44;;;;;;;6.05;3.75;;;;;;;;;;791336;74;26552;-75
2022/03/23 08:20:47;;;;;;;4.80;4.00;;;;;;;;;;767933;77;26305;-74
2022/03/23 08:21:52;;;;;;;6.67;4.58;;;;;;;;;;767715;77;26707;-75
2022/03/23 08:22:59;;;;;;;6.65;4.25;;;;;;;;;;767774;77;26311;-75
2022/03/23 08:24:03;;;;;;;4.62;4.00;;;;;;;;;;767865;77;26243;-75
2022/03/23 08:27:15;;;;;;;5.15;3.95;;;;;;;;;;767958;77;26673;-75
2022/03/23 08:28:21;;;;;;;5.47;4.50;;;;;;;;;;769482;77;26310;-76
2022/03/23 08:29:25;;;;;;;8.03;5.65;;;;;;;;;;782353;76;26249;-75
2022/03/23 08:30:28;;;;;;;7.00;6.30;;;;;;;;;;782726;76;26241;-75
2022/03/23 08:31:31;;;;;;;7.00;5.80;;;;;;;;;;782999;76;26338;-74
2022/03/23 08:32:34;;;;;;;5.97;5.15;;;;;;;;;;769568;77;26453;-75
2022/03/23 08:33:42;;;;;;;4.80;4.40;;;;;;;;;;770288;77;26260;-74
2022/03/23 08:41:10;;;;;;;7.05;4.80;;;;;;;;;;765096;77;26241;-74
2022/03/23 08:42:22;;;;;;;7.20;4.70;;;;;;;;;;784318;75;26255;-75
2022/03/23 08:43:26;;;;;;;6.95;4.67;;;;;;;;;;787510;75;26228;-76
2022/03/23 08:44:32;;;;;;;9.93;5.47;;;;;;;;;;787097;75;26220;-75
2022/03/23 08:48:58;;;;;;;7.17;4.67;;;;;;;;;;777871;75;26696;-75
2022/03/23 08:50:04;;;;;;;5.83;5.22;;;;;;;;;;775254;76;26388;-74
2022/03/23 08:51:07;;;;;;;6.20;5.40;;;;;;;;;;772493;77;26325;-74
2022/03/23 08:52:11;;;;;;;6.58;4.97;;;;;;;;;;772794;76;26234;-75
2022/03/23 08:53:16;;;;;;;8.53;4.87;;;;;;;;;;775292;76;26258;-74
2022/03/23 08:54:19;;;;;;;7.30;4.90;;;;;;;;;;775295;76;26284;-74
2022/03/23 08:59:03;;;;;;;11.55;6.55;;;;;;;;;;796542;74;26205;-75
2022/03/23 09:00:08;;;;;;;6.53;5.90;;;;;;;;;;796128;74;26678;-75
2022/03/23 09:03:27;;;;;;;9.33;5.87;;;;;;;;;;796480;74;26162;-76
2022/03/23 09:07:47;;;;;;;7.30;5.35;;;;;;;;;;793205;74;26288;-75
2022/03/23 09:08:55;;;;;;;6.65;5.50;;;;;;;;;;796542;74;26664;-75
2022/03/23 09:09:58;;;;;;;7.50;5.05;;;;;;;;;;796191;74;26291;-75
2022/03/23 09:11:03;;;;;;;7.15;5.00;;;;;;;;;;797025;74;26254;-75
2022/03/23 09:12:07;;;;;;;9.83;5.20;;;;;;;;;;796893;74;26224;-74
2022/03/23 09:13:11;;;;;;;4.87;4.45;;;;;;;;;;799773;74;26242;-76
2022/03/23 09:14:16;;;;;;;9.15;5.30;;;;;;;;;;796875;74;26238;-74
2022/03/23 09:17:38;;;;;;;6.00;4.92;;;;;;;;;;773465;76;26316;-75
2022/03/23 09:18:43;;;;;;;7.58;5.35;;;;;;;;;;791049;75;26307;-75
2022/03/23 09:19:47;;;;;;;5.35;4.95;;;;;;;;;;793224;75;26237;-75
2022/03/23 09:20:50;;;;;;;7.22;4.70;;;;;;;;;;793707;75;26299;-75
2022/03/23 09:21:54;;;;;;;6.50;5.10;;;;;;;;;;793738;75;26222;-74
2022/03/23 09:22:59;;;;;;;9.15;5.45;;;;;;;;;;792697;75;26299;-75
2022/03/23 09:24:02;;;;;;;7.00;5.00;;;;;;;;;;793685;75;26717;-74
2022/03/23 09:28:32;;;;;;;8.03;6.03;;;;;;;;;;748112;79;26311;-75
2022/03/23 09:29:36;;;;;;;6.90;5.08;;;;;;;;;;748409;78;26678;-73
2022/03/23 09:30:40;;;;;;;8.60;5.20;;;;;;;;;;748470;79;26246;-74
2022/03/23 09:31:43;;;;;;;7.45;4.90;;;;;;;;;;748489;78;26327;-74
2022/03/23 09:32:47;;;;;;;7.87;5.72;;;;;;;;;;748448;79;26694;-75
2022/03/23 09:33:54;;;;;;;6.65;5.50;;;;;;;;;;763538;77;26728;-75
2022/03/23 09:38:14;;;;;;;7.67;4.62;;;;;;;;;;795525;74;26254;-75
2022/03/23 09:39:18;;;;;;;8.38;5.00;;;;;;;;;;807637;73;26218;-74
2022/03/23 09:40:28;;;;;;;8.25;5.58;;;;;;;;;;806965;73;26277;-75
2022/03/23 09:41:34;;;;;;;9.28;5.67;;;;;;;;;;807394;72;26224;-75
2022/03/23 09:42:39;;;;;;;9.10;6.28;;;;;;;;;;808568;73;26678;-74
2022/03/23 09:43:43;;;;;;;9.28;5.62;;;;;;;;;;812712;73;26216;-74
2022/03/23 09:47:05;;;;;;;5.37;4.40;;;;;;;;;;813517;73;26146;-74
2022/03/23 09:48:12;;;;;;;8.35;5.65;;;;;;;;;;793623;75;26318;-74
2022/03/23 09:49:15;;;;;;;8.95;5.95;;;;;;;;;;793618;75;26292;-76
2022/03/23 09:54:00;;;;;;;8.40;5.55;;;;;;;;;;800608;73;26339;-74
2022/03/23 09:56:52;;;;;;;6.50;5.72;;;;;;;;;;809148;73;26223;-75
2022/03/23 09:57:58;;;;;;;9.60;5.28;;;;;;;;;;809259;73;26305;-74
2022/03/23 09:59:04;;;;;;;8.08;5.50;;;;;;;;;;809352;73;26301;-76
2022/03/23 10:00:12;;;;;;;9.45;5.50;;;;;;;;;;809295;73;26223;-76
2022/03/23 10:01:33;;;;;;;8.48;6.10;;;;;;;;;;807014;73;26230;-75
2022/03/23 10:02:57;;;;;;;9.80;5.83;;;;;;;;;;809530;73;26652;-78
2022/03/23 10:04:06;;;;;;;8.38;5.35;;;;;;;;;;809032;73;26672;-75
2022/03/23 10:07:44;;;;;;;6.37;5.20;;;;;;;;;;742550;80;26229;-74
2022/03/23 10:09:05;;;;;;;6.80;6.10;;;;;;;;;;743355;78;26270;-74
2022/03/23 10:10:20;;;;;;;5.62;4.85;;;;;;;;;;737169;80;26287;-75
2022/03/23 10:11:43;;;;;;;9.28;5.42;;;;;;;;;;750338;78;26339;-75
2022/03/23 10:13:04;;;;;;;7.53;5.00;;;;;;;;;;750060;79;26269;-75
2022/03/23 10:17:58;;;;;;;5.70;5.08;;;;;;;;;;765023;76;26241;-74
2022/03/23 10:19:01;;;;;;;7.45;4.80;;;;;;;;;;772790;75;26302;-75
2022/03/23 10:20:06;;;;;;;7.35;5.35;;;;;;;;;;772908;77;26247;-75
2022/03/23 10:21:32;;;;;;;11.40;5.33;;;;;;;;;;772885;77;26377;-76
2022/03/23 10:22:36;;;;;;;7.42;5.30;;;;;;;;;;772852;77;26246;-75
2022/03/23 10:23:40;;;;;;;9.53;5.60;;;;;;;;;;772931;77;26770;-75
2022/03/23 10:28:14;;;;;;;9.53;6.10;;;;;;;;;;775208;73;26215;-74
2022/03/23 10:29:22;;;;;;;8.48;5.83;;;;;;;;;;796501;74;26228;-74
2022/03/23 10:30:50;;;;;;;8.40;5.45;;;;;;;;;;797047;74;26688;-75
2022/03/23 10:32:00;;;;;;;7.03;4.80;;;;;;;;;;764626;77;26324;-74
2022/03/23 10:36:35;;;;;;;6.92;5.17;;;;;;;;;;789942;74;26243;-76
2022/03/23 10:37:48;;;;;;;4.87;4.35;;;;;;;;;;775807;76;26249;-75
2022/03/23 10:38:52;;;;;;;6.55;4.85;;;;;;;;;;782609;74;26730;-75
2022/03/23 10:40:02;;;;;;;7.42;4.72;;;;;;;;;;795221;74;26716;-75
2022/03/23 10:43:08;;;;;;;9.68;5.15;;;;;;;;;;795938;74;26170;-74
2022/03/23 10:47:49;;;;;;;5.53;4.80;;;;;;;;;;780008;75;26338;-74
2022/03/23 10:48:54;;;;;;;5.60;5.10;;;;;;;;;;776345;75;26258;-75
2022/03/23 10:50:23;;;;;;;6.03;4.45;;;;;;;;;;775936;76;26710;-75
2022/03/23 10:51:31;;;;;;;5.85;4.90;;;;;;;;;;775327;76;26699;-75
2022/03/23 10:52:34;;;;;;;5.95;4.92;;;;;;;;;;757642;76;26761;-74
2022/03/23 10:53:43;;;;;;;8.53;5.25;;;;;;;;;;776168;76;26304;-74
2022/03/23 10:58:07;;;;;;;7.97;5.12;;;;;;;;;;780576;75;26603;-75
2022/03/23 10:59:25;;;;;;;5.78;4.92;;;;;;;;;;780371;76;26338;-75
2022/03/23 11:00:32;;;;;;;7.25;5.45;;;;;;;;;;780375;76;26306;-76
2022/03/23 11:01:43;;;;;;;6.47;5.15;;;;;;;;;;780500;76;26244;-75